Time;durP1;ratioP1;P1;durP2;ratioP2;P2;SDS_P1;SDS_P2;PMS_P1;PMS_P2;Temp;Humidity;BMP_temperature;BMP_pressure;BME280_temperature;BME280_humidity;BME280_pressure;Samples;Min_cycle;Max_cycle;Signal;HPM_P1;HPM_P2
2023/06/08 00:00:50;;;;;;;12.37;8.83;;;;;;;;;;5109951;28;20058;-63
2023/06/08 00:03:17;;;;;;;20.58;10.57;;;;;;;;;;5098766;28;20289;-63
2023/06/08 00:05:47;;;;;;;14.80;8.93;;;;;;;;;;5081399;28;20071;-63
2023/06/08 00:08:12;;;;;;;11.35;8.38;;;;;;;;;;5101034;28;20040;-63
2023/06/08 00:10:40;;;;;;;14.57;8.82;;;;;;;;;;5104020;28;20098;-64
2023/06/08 00:13:05;;;;;;;13.77;8.13;;;;;;;;;;5101606;28;20036;-63
2023/06/08 00:15:32;;;;;;;14.15;8.07;;;;;;;;;;5103386;28;20027;-64
2023/06/08 00:17:58;;;;;;;21.90;8.18;;;;;;;;;;5104396;28;20028;-63
2023/06/08 00:20:24;;;;;;;11.75;7.68;;;;;;;;;;5094575;28;20481;-64
2023/06/08 00:22:50;;;;;;;14.23;7.40;;;;;;;;;;5093978;28;20041;-63
2023/06/08 00:25:15;;;;;;;11.25;8.30;;;;;;;;;;5103648;28;20031;-63
2023/06/08 00:27:40;;;;;;;16.63;8.07;;;;;;;;;;5091308;28;20455;-64
2023/06/08 00:30:06;;;;;;;10.43;7.23;;;;;;;;;;5091278;28;20772;-63
2023/06/08 00:32:32;;;;;;;11.77;8.05;;;;;;;;;;5094190;28;20266;-63
2023/06/08 00:34:57;;;;;;;16.00;7.47;;;;;;;;;;5100369;28;20035;-64
2023/06/08 00:37:22;;;;;;;12.35;7.32;;;;;;;;;;5096405;28;20054;-63
2023/06/08 00:39:47;;;;;;;12.63;7.50;;;;;;;;;;5103246;28;20028;-63
2023/06/08 00:42:13;;;;;;;16.30;7.85;;;;;;;;;;5096800;28;20310;-64
2023/06/08 00:44:38;;;;;;;10.73;7.22;;;;;;;;;;5092000;28;20024;-63
2023/06/08 00:47:03;;;;;;;24.20;8.97;;;;;;;;;;5100861;28;20032;-64
2023/06/08 00:49:30;;;;;;;11.48;7.30;;;;;;;;;;5091480;28;20274;-63
2023/06/08 00:51:56;;;;;;;11.48;6.95;;;;;;;;;;5102963;28;20028;-64
2023/06/08 00:54:24;;;;;;;11.02;7.55;;;;;;;;;;5092638;28;20394;-63
2023/06/08 00:56:49;;;;;;;13.98;7.68;;;;;;;;;;5092773;28;20039;-63
2023/06/08 00:59:15;;;;;;;16.48;8.82;;;;;;;;;;5105850;28;20386;-63
2023/06/08 01:01:40;;;;;;;13.38;7.68;;;;;;;;;;5096117;28;20024;-64
2023/06/08 01:04:05;;;;;;;15.48;8.30;;;;;;;;;;5108957;28;20077;-63
2023/06/08 01:06:32;;;;;;;15.48;8.02;;;;;;;;;;5107472;28;20047;-64
2023/06/08 01:09:16;;;;;;;16.05;7.28;;;;;;;;;;5111130;28;20023;-63
2023/06/08 01:11:42;;;;;;;10.27;7.35;;;;;;;;;;5107769;28;20034;-64
2023/06/08 01:14:13;;;;;;;12.38;7.68;;;;;;;;;;5109437;28;20047;-64
2023/06/08 01:16:40;;;;;;;15.77;8.55;;;;;;;;;;5097911;28;20390;-63
2023/06/08 01:19:10;;;;;;;16.23;8.40;;;;;;;;;;5098688;28;20086;-63
2023/06/08 01:21:51;;;;;;;19.48;8.48;;;;;;;;;;5102816;28;20394;-63
2023/06/08 01:24:20;;;;;;;16.85;8.38;;;;;;;;;;5092235;28;20024;-63
2023/06/08 01:26:49;;;;;;;12.57;7.53;;;;;;;;;;5097794;28;20032;-63
2023/06/08 01:29:15;;;;;;;16.52;8.35;;;;;;;;;;5089755;28;20032;-63
2023/06/08 01:31:41;;;;;;;12.77;8.00;;;;;;;;;;5090070;28;20028;-64
2023/06/08 01:34:06;;;;;;;18.83;8.80;;;;;;;;;;5101976;28;20027;-62
2023/06/08 01:36:31;;;;;;;25.77;8.32;;;;;;;;;;5095564;28;20060;-64
2023/06/08 01:39:09;;;;;;;10.10;6.93;;;;;;;;;;5095204;28;20023;-63
2023/06/08 01:41:37;;;;;;;15.32;8.05;;;;;;;;;;5098985;28;20270;-63
2023/06/08 01:44:04;;;;;;;15.38;8.70;;;;;;;;;;5107785;28;20103;-63
2023/06/08 01:46:30;;;;;;;18.23;8.35;;;;;;;;;;5110543;28;20019;-63
2023/06/08 01:48:58;;;;;;;13.60;8.75;;;;;;;;;;5108617;28;20031;-64
2023/06/08 01:51:24;;;;;;;15.93;7.68;;;;;;;;;;5109006;28;20434;-63
2023/06/08 01:53:49;;;;;;;21.27;9.48;;;;;;;;;;5103978;28;20024;-63
2023/06/08 01:56:14;;;;;;;25.63;9.32;;;;;;;;;;5098045;28;20032;-63
2023/06/08 01:58:40;;;;;;;13.60;8.32;;;;;;;;;;5106917;28;20031;-63
2023/06/08 02:01:05;;;;;;;16.60;9.30;;;;;;;;;;5098258;28;20085;-64
2023/06/08 02:03:30;;;;;;;15.73;8.90;;;;;;;;;;5108151;28;20054;-64
2023/06/08 02:05:55;;;;;;;17.92;8.82;;;;;;;;;;5108638;28;20266;-64
2023/06/08 02:08:21;;;;;;;22.13;10.20;;;;;;;;;;5106404;28;20774;-64
2023/06/08 02:10:46;;;;;;;16.07;9.17;;;;;;;;;;5108109;28;20783;-63
2023/06/08 02:13:11;;;;;;;18.23;9.63;;;;;;;;;;5099269;28;20359;-64
2023/06/08 02:15:36;;;;;;;17.48;8.82;;;;;;;;;;5112434;28;20266;-63
2023/06/08 02:18:03;;;;;;;15.38;9.40;;;;;;;;;;5110544;28;20020;-63
2023/06/08 02:20:30;;;;;;;14.30;8.23;;;;;;;;;;5110682;28;20023;-63
2023/06/08 02:22:56;;;;;;;16.17;8.38;;;;;;;;;;5102752;28;20032;-64
2023/06/08 02:25:21;;;;;;;15.47;8.07;;;;;;;;;;5111541;28;20023;-64
2023/06/08 02:27:48;;;;;;;15.43;8.73;;;;;;;;;;5113172;28;20344;-64
2023/06/08 02:30:14;;;;;;;17.45;8.55;;;;;;;;;;5098268;28;20360;-64
2023/06/08 02:32:41;;;;;;;20.98;10.55;;;;;;;;;;5105919;28;20031;-64
2023/06/08 02:35:07;;;;;;;14.93;8.20;;;;;;;;;;5111854;28;20420;-64
2023/06/08 02:37:33;;;;;;;20.55;9.65;;;;;;;;;;5112131;28;20043;-64
2023/06/08 02:39:59;;;;;;;14.07;9.00;;;;;;;;;;5107248;28;20056;-64
2023/06/08 02:42:24;;;;;;;21.10;8.85;;;;;;;;;;5092951;28;20048;-65
2023/06/08 02:44:49;;;;;;;14.13;8.45;;;;;;;;;;5099693;28;20024;-64
2023/06/08 02:47:15;;;;;;;15.82;8.38;;;;;;;;;;5096417;28;20099;-64
2023/06/08 02:49:41;;;;;;;16.27;8.82;;;;;;;;;;5092824;28;20036;-64
2023/06/08 02:52:06;;;;;;;16.73;8.93;;;;;;;;;;5092302;28;20051;-64
2023/06/08 02:54:31;;;;;;;16.15;8.45;;;;;;;;;;5102689;28;20454;-64
2023/06/08 02:56:56;;;;;;;21.17;9.90;;;;;;;;;;5104616;28;20438;-64
2023/06/08 02:59:22;;;;;;;15.25;9.25;;;;;;;;;;5097275;28;20274;-64
2023/06/08 03:01:53;;;;;;;17.73;9.25;;;;;;;;;;5101935;28;20077;-64
2023/06/08 03:04:25;;;;;;;14.93;9.35;;;;;;;;;;5103115;28;20042;-64
2023/06/08 03:06:56;;;;;;;16.85;9.57;;;;;;;;;;5092879;28;20026;-64
2023/06/08 03:09:22;;;;;;;19.02;9.38;;;;;;;;;;5094985;28;20111;-64
2023/06/08 03:11:47;;;;;;;15.38;9.18;;;;;;;;;;5095013;28;20048;-64
2023/06/08 03:14:12;;;;;;;18.67;10.73;;;;;;;;;;5100223;28;20025;-64
2023/06/08 03:16:38;;;;;;;27.88;9.45;;;;;;;;;;5099411;28;20509;-64
2023/06/08 03:19:03;;;;;;;21.88;10.02;;;;;;;;;;5110841;28;20055;-64
2023/06/08 03:21:29;;;;;;;16.80;9.73;;;;;;;;;;5093690;28;20036;-65
2023/06/08 03:23:55;;;;;;;19.45;10.50;;;;;;;;;;5096513;28;20055;-65
2023/06/08 03:26:20;;;;;;;15.40;9.88;;;;;;;;;;5093482;28;20040;-64
2023/06/08 03:28:46;;;;;;;16.63;10.95;;;;;;;;;;5103684;28;20482;-64
2023/06/08 03:31:11;;;;;;;23.50;10.73;;;;;;;;;;5111391;28;20051;-64
2023/06/08 03:33:36;;;;;;;16.88;9.82;;;;;;;;;;5103796;28;20043;-64
2023/06/08 03:36:01;;;;;;;14.15;9.35;;;;;;;;;;5099550;28;20055;-64
2023/06/08 03:38:27;;;;;;;20.15;10.35;;;;;;;;;;5092576;28;20521;-65
2023/06/08 03:40:52;;;;;;;15.25;10.18;;;;;;;;;;5109727;28;20156;-65
2023/06/08 03:43:17;;;;;;;15.50;10.05;;;;;;;;;;5094368;28;20467;-64
2023/06/08 03:45:42;;;;;;;24.65;11.10;;;;;;;;;;5108578;28;20024;-65
2023/06/08 03:48:08;;;;;;;20.15;11.05;;;;;;;;;;5110174;28;20027;-64
2023/06/08 03:50:33;;;;;;;15.27;10.70;;;;;;;;;;5100747;28;20024;-64
2023/06/08 03:52:58;;;;;;;15.20;9.70;;;;;;;;;;5110474;28;20767;-64
2023/06/08 03:55:26;;;;;;;18.60;10.05;;;;;;;;;;5105409;28;20024;-64
2023/06/08 03:57:52;;;;;;;18.27;10.82;;;;;;;;;;5102694;28;20039;-66
2023/06/08 04:00:17;;;;;;;18.35;11.38;;;;;;;;;;5107722;28;20031;-65
2023/06/08 04:02:42;;;;;;;20.13;11.73;;;;;;;;;;5107478;28;20142;-64
2023/06/08 04:05:08;;;;;;;18.23;11.15;;;;;;;;;;5107692;28;20104;-63
2023/06/08 04:07:34;;;;;;;19.50;10.85;;;;;;;;;;5099471;28;20039;-64
2023/06/08 04:10:00;;;;;;;19.92;10.98;;;;;;;;;;5087564;28;20071;-64
2023/06/08 04:12:25;;;;;;;18.88;10.60;;;;;;;;;;5108911;28;20051;-64
2023/06/08 04:14:50;;;;;;;23.10;11.27;;;;;;;;;;5111603;28;20112;-64
2023/06/08 04:17:16;;;;;;;15.80;10.63;;;;;;;;;;5101497;28;20331;-64
2023/06/08 04:19:41;;;;;;;21.17;11.48;;;;;;;;;;5097589;28;20019;-64
2023/06/08 04:22:07;;;;;;;17.23;10.60;;;;;;;;;;5100341;28;20048;-64
2023/06/08 04:24:33;;;;;;;18.42;12.05;;;;;;;;;;5097301;28;20517;-64
2023/06/08 04:26:58;;;;;;;29.05;12.07;;;;;;;;;;5104629;28;20030;-64
2023/06/08 04:29:23;;;;;;;19.17;12.40;;;;;;;;;;5098644;28;20031;-64
2023/06/08 04:31:49;;;;;;;21.55;11.98;;;;;;;;;;5100464;28;20038;-64
2023/06/08 04:34:15;;;;;;;20.35;12.55;;;;;;;;;;5101354;28;20478;-64
2023/06/08 04:36:43;;;;;;;22.85;12.32;;;;;;;;;;5098329;28;20024;-63
2023/06/08 04:39:09;;;;;;;19.67;12.65;;;;;;;;;;5098892;28;20028;-63
2023/06/08 04:41:35;;;;;;;14.05;11.45;;;;;;;;;;5108847;28;20035;-64
2023/06/08 04:44:01;;;;;;;21.35;12.18;;;;;;;;;;5095726;28;20047;-64
2023/06/08 04:46:30;;;;;;;22.90;12.18;;;;;;;;;;5090545;28;20260;-64
2023/06/08 04:48:55;;;;;;;22.15;13.13;;;;;;;;;;5104364;28;20012;-64
2023/06/08 04:51:23;;;;;;;19.15;12.60;;;;;;;;;;5089914;28;20612;-64
2023/06/08 04:53:48;;;;;;;15.70;11.63;;;;;;;;;;5101056;28;20394;-64
2023/06/08 04:56:18;;;;;;;21.35;12.35;;;;;;;;;;5095485;28;20023;-63
2023/06/08 04:58:43;;;;;;;18.20;11.35;;;;;;;;;;5098639;28;20081;-63
2023/06/08 05:01:09;;;;;;;18.55;12.45;;;;;;;;;;5101028;28;20035;-64
2023/06/08 05:03:34;;;;;;;24.85;12.82;;;;;;;;;;5105032;28;20036;-63
2023/06/08 05:05:59;;;;;;;17.13;12.60;;;;;;;;;;5102224;28;20037;-63
2023/06/08 05:08:25;;;;;;;20.13;12.70;;;;;;;;;;5094887;28;20030;-63
2023/06/08 05:10:50;;;;;;;16.80;11.75;;;;;;;;;;5103224;28;20353;-63
2023/06/08 05:13:15;;;;;;;21.77;12.35;;;;;;;;;;5085584;28;20043;-64
2023/06/08 05:15:40;;;;;;;20.77;11.57;;;;;;;;;;5101033;28;21638;-63
2023/06/08 05:18:06;;;;;;;18.73;11.88;;;;;;;;;;5096299;28;20732;-64
2023/06/08 05:20:31;;;;;;;16.40;11.82;;;;;;;;;;5106828;28;20114;-64
2023/06/08 05:22:58;;;;;;;18.10;12.25;;;;;;;;;;5105070;28;20070;-63
2023/06/08 05:25:23;;;;;;;19.70;12.23;;;;;;;;;;5093445;28;20093;-63
2023/06/08 05:27:48;;;;;;;20.85;12.10;;;;;;;;;;5093741;28;20023;-64
2023/06/08 05:30:14;;;;;;;19.20;11.37;;;;;;;;;;5100381;28;20088;-62
2023/06/08 05:32:39;;;;;;;26.45;13.82;;;;;;;;;;5098956;28;20284;-64
2023/06/08 05:35:05;;;;;;;21.65;11.88;;;;;;;;;;5089903;28;20028;-63
2023/06/08 05:37:30;;;;;;;19.05;12.38;;;;;;;;;;5101507;28;20020;-63
2023/06/08 05:39:56;;;;;;;21.85;13.38;;;;;;;;;;5100018;28;20054;-64
2023/06/08 05:42:21;;;;;;;22.05;12.60;;;;;;;;;;5105101;28;20098;-63
2023/06/08 05:44:47;;;;;;;18.83;13.48;;;;;;;;;;5105402;28;20526;-63
2023/06/08 05:47:12;;;;;;;19.40;13.35;;;;;;;;;;5089300;28;20507;-63
2023/06/08 05:49:37;;;;;;;25.02;12.65;;;;;;;;;;5089821;28;20423;-63
2023/06/08 05:52:02;;;;;;;23.88;14.18;;;;;;;;;;5102811;28;20016;-63
2023/06/08 05:54:28;;;;;;;25.65;12.30;;;;;;;;;;5090603;28;20505;-63
2023/06/08 05:56:53;;;;;;;18.73;12.70;;;;;;;;;;5091760;28;20028;-63
2023/06/08 05:59:18;;;;;;;20.52;12.80;;;;;;;;;;5099078;28;20027;-63
2023/06/08 06:01:43;;;;;;;21.35;12.60;;;;;;;;;;5102219;28;20386;-63
2023/06/08 06:04:09;;;;;;;19.13;13.07;;;;;;;;;;5091027;28;20063;-63
2023/06/08 06:06:35;;;;;;;24.63;13.53;;;;;;;;;;5099941;28;20300;-63
2023/06/08 06:09:01;;;;;;;19.58;11.52;;;;;;;;;;5089698;28;20266;-63
2023/06/08 06:11:26;;;;;;;19.33;13.85;;;;;;;;;;5089752;28;20024;-64
2023/06/08 06:13:51;;;;;;;21.30;13.48;;;;;;;;;;5102137;28;20024;-65
2023/06/08 06:16:17;;;;;;;30.35;13.55;;;;;;;;;;5100692;28;20024;-63
2023/06/08 06:18:46;;;;;;;19.90;12.90;;;;;;;;;;5105741;28;20460;-65
2023/06/08 06:21:12;;;;;;;17.80;12.75;;;;;;;;;;5097476;28;20474;-64
2023/06/08 06:23:37;;;;;;;19.45;13.13;;;;;;;;;;5104482;28;20037;-64
2023/06/08 06:26:02;;;;;;;24.15;13.60;;;;;;;;;;5099903;28;20051;-63
2023/06/08 06:28:28;;;;;;;19.98;13.85;;;;;;;;;;5101448;28;20375;-64
2023/06/08 06:30:53;;;;;;;21.83;13.50;;;;;;;;;;5102629;28;20032;-64
2023/06/08 06:33:18;;;;;;;24.83;13.73;;;;;;;;;;5104307;28;20381;-63
2023/06/08 06:35:43;;;;;;;25.60;13.63;;;;;;;;;;5103508;28;20289;-64
2023/06/08 06:38:09;;;;;;;22.33;14.00;;;;;;;;;;5101444;28;20278;-64
2023/06/08 06:40:34;;;;;;;26.58;14.38;;;;;;;;;;5096164;28;20609;-64
2023/06/08 06:42:59;;;;;;;17.48;13.50;;;;;;;;;;5088753;28;20035;-64
2023/06/08 06:45:25;;;;;;;25.40;14.77;;;;;;;;;;5087906;28;20035;-63
2023/06/08 06:47:50;;;;;;;18.83;13.23;;;;;;;;;;5087205;28;20278;-64
2023/06/08 06:50:15;;;;;;;21.15;13.95;;;;;;;;;;5106474;28;20035;-63
2023/06/08 06:52:41;;;;;;;21.10;13.82;;;;;;;;;;5101503;28;20016;-63
2023/06/08 06:55:06;;;;;;;18.92;11.98;;;;;;;;;;5111853;28;20023;-64
2023/06/08 06:57:32;;;;;;;20.48;14.07;;;;;;;;;;5102862;28;20375;-64
2023/06/08 07:00:01;;;;;;;19.10;13.85;;;;;;;;;;5112547;28;20367;-63
2023/06/08 07:02:29;;;;;;;19.90;14.23;;;;;;;;;;5112258;28;20371;-63
2023/06/08 07:04:55;;;;;;;20.55;15.25;;;;;;;;;;5108998;28;20054;-64
2023/06/08 07:07:23;;;;;;;20.88;14.82;;;;;;;;;;5096635;28;20483;-64
2023/06/08 07:09:48;;;;;;;22.15;14.40;;;;;;;;;;5098279;28;20115;-63
2023/06/08 07:12:14;;;;;;;34.35;15.25;;;;;;;;;;5100205;28;20111;-64
2023/06/08 07:14:39;;;;;;;27.58;14.05;;;;;;;;;;5108586;28;20100;-64
2023/06/08 07:17:05;;;;;;;19.60;13.98;;;;;;;;;;5105510;28;20381;-64
2023/06/08 07:19:31;;;;;;;19.98;13.70;;;;;;;;;;5095836;28;20081;-64
2023/06/08 07:21:56;;;;;;;18.65;14.07;;;;;;;;;;5079187;28;20012;-64
2023/06/08 07:24:21;;;;;;;21.33;13.43;;;;;;;;;;5101890;28;20043;-64
2023/06/08 07:26:46;;;;;;;21.08;14.32;;;;;;;;;;5101293;28;20642;-64
2023/06/08 07:29:12;;;;;;;22.67;13.50;;;;;;;;;;5101491;28;20052;-63
2023/06/08 07:31:39;;;;;;;19.23;13.27;;;;;;;;;;5099214;28;20028;-63
2023/06/08 07:34:04;;;;;;;18.33;14.05;;;;;;;;;;5095449;28;20028;-63
2023/06/08 07:36:31;;;;;;;20.05;14.05;;;;;;;;;;5100160;28;20043;-63
2023/06/08 07:38:56;;;;;;;22.65;14.65;;;;;;;;;;5095582;28;20035;-65
2023/06/08 07:41:22;;;;;;;28.30;14.25;;;;;;;;;;5088762;28;20051;-64
2023/06/08 07:43:47;;;;;;;27.07;13.97;;;;;;;;;;5105158;28;20027;-63
2023/06/08 07:46:12;;;;;;;20.80;13.87;;;;;;;;;;5104957;28;20308;-63
2023/06/08 07:48:38;;;;;;;24.90;13.15;;;;;;;;;;5091491;28;20299;-64
2023/06/08 07:51:03;;;;;;;18.45;14.15;;;;;;;;;;5105452;28;20064;-63
2023/06/08 07:53:35;;;;;;;19.23;14.27;;;;;;;;;;5081993;28;20028;-64
2023/06/08 07:56:01;;;;;;;32.30;14.43;;;;;;;;;;5107044;28;20020;-64
2023/06/08 07:58:26;;;;;;;20.02;13.10;;;;;;;;;;5094160;28;20065;-64
2023/06/08 08:00:51;;;;;;;16.92;12.68;;;;;;;;;;5101036;28;20027;-64
2023/06/08 08:03:16;;;;;;;24.13;12.23;;;;;;;;;;5083087;28;20505;-64
2023/06/08 08:05:42;;;;;;;17.17;12.95;;;;;;;;;;5106033;28;20746;-63
2023/06/08 08:08:07;;;;;;;20.00;12.80;;;;;;;;;;5096830;28;20104;-64
2023/06/08 08:10:32;;;;;;;19.43;13.50;;;;;;;;;;5079133;28;20277;-64
2023/06/08 08:12:57;;;;;;;17.85;12.68;;;;;;;;;;5099627;28;20791;-64
2023/06/08 08:15:23;;;;;;;14.73;11.63;;;;;;;;;;5080183;28;20107;-64
2023/06/08 08:17:48;;;;;;;27.40;12.97;;;;;;;;;;5106712;28;20328;-64
2023/06/08 08:20:13;;;;;;;24.92;14.43;;;;;;;;;;5100308;28;20274;-63
2023/06/08 08:22:39;;;;;;;31.42;13.30;;;;;;;;;;5111522;28;20024;-64
2023/06/08 08:25:04;;;;;;;13.93;12.13;;;;;;;;;;5103171;28;20407;-63
2023/06/08 08:27:30;;;;;;;19.25;12.75;;;;;;;;;;5100519;28;20060;-64
2023/06/08 08:29:55;;;;;;;20.60;12.23;;;;;;;;;;5105925;28;20030;-64
2023/06/08 08:32:20;;;;;;;15.90;12.47;;;;;;;;;;5110389;28;20359;-64
2023/06/08 08:34:45;;;;;;;21.60;14.00;;;;;;;;;;5107778;28;20312;-64
2023/06/08 08:37:11;;;;;;;19.40;14.07;;;;;;;;;;5102009;28;20024;-64
2023/06/08 08:39:36;;;;;;;18.33;13.02;;;;;;;;;;5103034;28;20099;-64
2023/06/08 08:42:02;;;;;;;16.42;13.85;;;;;;;;;;5105039;28;20043;-65
2023/06/08 08:44:29;;;;;;;23.02;12.55;;;;;;;;;;5102318;28;20099;-63
2023/06/08 08:46:55;;;;;;;17.98;12.93;;;;;;;;;;5093666;28;20482;-64
2023/06/08 08:49:21;;;;;;;18.75;12.57;;;;;;;;;;5097727;28;20031;-63
2023/06/08 08:51:51;;;;;;;15.45;12.75;;;;;;;;;;5094986;28;20124;-64
2023/06/08 08:54:17;;;;;;;14.15;12.20;;;;;;;;;;5109382;28;20504;-64
2023/06/08 08:56:42;;;;;;;17.48;11.75;;;;;;;;;;5102619;28;20028;-65
2023/06/08 08:59:08;;;;;;;23.30;11.52;;;;;;;;;;5103817;28;20035;-64
2023/06/08 09:01:34;;;;;;;12.95;10.15;;;;;;;;;;5097919;28;20028;-65
2023/06/08 09:04:00;;;;;;;16.95;10.02;;;;;;;;;;5087302;28;20024;-64
2023/06/08 09:06:28;;;;;;;23.02;12.65;;;;;;;;;;5053793;28;20035;-64
2023/06/08 09:08:54;;;;;;;20.23;12.45;;;;;;;;;;5061929;28;20022;-65
2023/06/08 09:11:19;;;;;;;19.00;12.40;;;;;;;;;;5093629;28;20028;-65
2023/06/08 09:13:44;;;;;;;15.75;10.10;;;;;;;;;;5099431;28;20024;-64
2023/06/08 09:16:10;;;;;;;17.30;12.70;;;;;;;;;;5110478;28;20027;-64
2023/06/08 09:18:36;;;;;;;16.73;12.15;;;;;;;;;;5094347;28;20344;-65
2023/06/08 09:21:20;;;;;;;17.13;11.32;;;;;;;;;;5099244;28;20023;-64
2023/06/08 09:23:45;;;;;;;20.77;12.20;;;;;;;;;;5094555;28;20035;-63
2023/06/08 09:26:13;;;;;;;15.32;10.52;;;;;;;;;;5093670;28;20125;-64
2023/06/08 09:28:38;;;;;;;14.30;10.48;;;;;;;;;;5103077;28;20491;-64
2023/06/08 09:31:08;;;;;;;12.95;9.95;;;;;;;;;;5102882;28;20022;-64
2023/06/08 09:33:33;;;;;;;12.73;10.18;;;;;;;;;;5108933;28;20132;-65
2023/06/08 09:35:59;;;;;;;13.87;10.40;;;;;;;;;;5110566;28;20422;-64
2023/06/08 09:38:28;;;;;;;16.93;10.40;;;;;;;;;;5108617;28;20324;-64
2023/06/08 09:41:11;;;;;;;16.85;10.63;;;;;;;;;;5105989;28;20106;-65
2023/06/08 09:43:36;;;;;;;15.10;8.60;;;;;;;;;;5111888;28;20541;-64
2023/06/08 09:46:02;;;;;;;13.50;9.00;;;;;;;;;;5105267;28;20354;-64
2023/06/08 09:48:27;;;;;;;12.98;10.68;;;;;;;;;;5103223;28;20798;-65
2023/06/08 09:51:01;;;;;;;15.27;10.88;;;;;;;;;;5103421;28;20072;-64
2023/06/08 09:53:26;;;;;;;;;;;;;;;;;;5097520;28;20036;-64
2023/06/08 09:55:53;;;;;;;15.93;9.85;;;;;;;;;;5101205;28;19926;-64
2023/06/08 09:58:20;;;;;;;16.23;9.25;;;;;;;;;;5096102;28;20482;-65
2023/06/08 10:00:46;;;;;;;18.83;10.95;;;;;;;;;;5099830;28;20023;-65
2023/06/08 10:03:15;;;;;;;11.65;8.70;;;;;;;;;;5094938;28;20356;-65
2023/06/08 10:05:43;;;;;;;14.38;8.80;;;;;;;;;;5098788;28;20103;-65
2023/06/08 10:08:09;;;;;;;12.60;10.27;;;;;;;;;;5105340;28;20050;-65
2023/06/08 10:10:38;;;;;;;16.40;7.88;;;;;;;;;;5094554;28;20375;-65
2023/06/08 10:13:04;;;;;;;12.25;7.80;;;;;;;;;;5090553;28;20123;-65
2023/06/08 10:15:29;;;;;;;10.63;7.85;;;;;;;;;;5095587;28;20101;-65
2023/06/08 10:17:55;;;;;;;11.95;8.60;;;;;;;;;;5111921;28;20043;-65
2023/06/08 10:20:20;;;;;;;11.52;7.53;;;;;;;;;;5110583;28;20024;-65
2023/06/08 10:22:47;;;;;;;11.10;7.20;;;;;;;;;;5111403;28;20062;-64
2023/06/08 10:25:13;;;;;;;14.50;8.40;;;;;;;;;;5113902;28;20047;-65
2023/06/08 10:27:46;;;;;;;11.23;6.70;;;;;;;;;;5114678;28;20023;-65
2023/06/08 10:30:24;;;;;;;8.38;7.25;;;;;;;;;;5106818;28;20023;-63
2023/06/08 10:32:50;;;;;;;7.30;5.82;;;;;;;;;;5113602;28;20481;-65
2023/06/08 10:35:15;;;;;;;9.60;6.97;;;;;;;;;;5112799;28;20024;-63
2023/06/08 10:37:43;;;;;;;14.73;8.52;;;;;;;;;;5113119;28;20041;-65
2023/06/08 10:40:09;;;;;;;14.98;8.68;;;;;;;;;;5114176;28;20474;-65
2023/06/08 10:42:35;;;;;;;13.05;8.00;;;;;;;;;;5100994;28;20050;-65
2023/06/08 10:45:02;;;;;;;13.65;8.50;;;;;;;;;;5114864;28;20481;-64
2023/06/08 10:47:31;;;;;;;15.75;9.60;;;;;;;;;;5100982;28;20035;-64
2023/06/08 10:50:03;;;;;;;10.70;8.73;;;;;;;;;;5101732;28;20035;-64
2023/06/08 10:52:38;;;;;;;11.38;8.20;;;;;;;;;;5094721;28;20051;-65
2023/06/08 10:55:03;;;;;;;;;;;;;;;;;;5095866;28;20032;-64
2023/06/08 10:57:34;;;;;;;17.23;9.70;;;;;;;;;;5095217;28;19916;-64
2023/06/08 11:00:00;;;;;;;10.13;9.02;;;;;;;;;;5096282;28;20513;-65
2023/06/08 11:02:27;;;;;;;16.92;9.15;;;;;;;;;;5095123;28;20024;-64
2023/06/08 11:04:53;;;;;;;12.77;8.20;;;;;;;;;;5095480;28;20020;-64
2023/06/08 11:07:22;;;;;;;13.23;9.38;;;;;;;;;;5076569;28;20127;-63
2023/06/08 11:09:47;;;;;;;11.35;10.15;;;;;;;;;;5104380;28;20020;-65
2023/06/08 11:12:13;;;;;;;21.58;9.98;;;;;;;;;;5114352;28;20069;-65
2023/06/08 11:14:38;;;;;;;10.17;7.43;;;;;;;;;;5113429;28;20024;-64
2023/06/08 11:17:03;;;;;;;10.13;7.67;;;;;;;;;;5114286;28;20346;-64
2023/06/08 11:19:29;;;;;;;9.02;7.20;;;;;;;;;;5112413;28;20026;-65
2023/06/08 11:21:55;;;;;;;13.15;7.22;;;;;;;;;;5111610;28;20100;-65
2023/06/08 11:24:25;;;;;;;11.77;7.22;;;;;;;;;;5113557;28;20114;-65
2023/06/08 11:26:55;;;;;;;10.60;6.28;;;;;;;;;;5113492;28;20031;-65
2023/06/08 11:29:20;;;;;;;8.48;6.90;;;;;;;;;;5113637;28;20082;-65
2023/06/08 11:31:45;;;;;;;8.27;6.93;;;;;;;;;;5113051;28;20470;-65
2023/06/08 11:34:13;;;;;;;8.70;6.05;;;;;;;;;;5113533;28;20036;-62
2023/06/08 11:36:44;;;;;;;11.73;6.65;;;;;;;;;;5112247;28;20020;-63
2023/06/08 11:39:15;;;;;;;8.25;6.38;;;;;;;;;;5113782;28;20015;-64
2023/06/08 11:41:46;;;;;;;9.60;6.60;;;;;;;;;;5111133;28;20496;-65
2023/06/08 11:44:11;;;;;;;11.70;6.78;;;;;;;;;;5112635;28;20535;-64
2023/06/08 11:46:36;;;;;;;13.50;6.53;;;;;;;;;;5114012;28;20023;-63
2023/06/08 11:49:11;;;;;;;9.83;6.43;;;;;;;;;;5113288;28;20098;-63
2023/06/08 11:52:05;;;;;;;7.35;5.90;;;;;;;;;;5099549;28;20081;-63
2023/06/08 11:54:30;;;;;;;;;;;;;;;;;;5086870;28;20043;-64
2023/06/08 11:57:03;;;;;;;10.25;6.22;;;;;;;;;;5112859;28;19912;-65
2023/06/08 11:59:29;;;;;;;11.38;7.68;;;;;;;;;;5113901;28;20024;-64
2023/06/08 12:01:55;;;;;;;12.90;6.03;;;;;;;;;;5112498;28;20106;-65
2023/06/08 12:04:27;;;;;;;12.30;6.60;;;;;;;;;;5113336;28;20091;-64
2023/06/08 12:06:53;;;;;;;11.57;7.45;;;;;;;;;;5113574;28;20020;-65
2023/06/08 12:09:18;;;;;;;9.67;7.23;;;;;;;;;;5096538;28;20403;-65
2023/06/08 12:11:43;;;;;;;13.33;7.60;;;;;;;;;;5093422;28;20048;-63
2023/06/08 12:14:13;;;;;;;14.73;8.90;;;;;;;;;;5099412;28;20289;-64
2023/06/08 12:16:41;;;;;;;9.82;7.05;;;;;;;;;;5113598;28;20301;-65
2023/06/08 12:19:06;;;;;;;11.05;8.18;;;;;;;;;;5094340;28;20027;-64
2023/06/08 12:21:38;;;;;;;14.03;8.90;;;;;;;;;;5094841;28;20016;-65
2023/06/08 12:24:04;;;;;;;16.95;8.70;;;;;;;;;;5094373;28;20024;-65
2023/06/08 12:26:29;;;;;;;11.77;8.45;;;;;;;;;;5095718;28;20042;-65
2023/06/08 12:28:55;;;;;;;15.93;8.40;;;;;;;;;;5105843;28;20027;-65
2023/06/08 12:31:20;;;;;;;16.17;8.67;;;;;;;;;;5095473;28;20036;-64
2023/06/08 12:33:45;;;;;;;15.40;9.50;;;;;;;;;;5093418;28;20636;-64
2023/06/08 12:36:11;;;;;;;9.90;8.23;;;;;;;;;;5094252;28;20281;-64
2023/06/08 12:38:38;;;;;;;15.13;8.43;;;;;;;;;;5100419;28;20122;-65
2023/06/08 12:41:04;;;;;;;14.57;8.63;;;;;;;;;;5112633;28;20349;-65
2023/06/08 12:43:29;;;;;;;13.68;10.57;;;;;;;;;;5111930;28;20470;-65
2023/06/08 12:45:54;;;;;;;10.47;8.90;;;;;;;;;;5109856;28;20024;-65
2023/06/08 12:48:20;;;;;;;17.80;10.00;;;;;;;;;;5111810;28;20031;-65
2023/06/08 12:50:45;;;;;;;10.48;8.25;;;;;;;;;;5108487;28;20121;-64
2023/06/08 12:53:11;;;;;;;11.13;8.80;;;;;;;;;;5111575;28;20145;-65
2023/06/08 12:55:36;;;;;;;11.60;9.25;;;;;;;;;;5110922;28;20035;-65
2023/06/08 12:58:01;;;;;;;14.52;8.88;;;;;;;;;;5111650;28;20076;-64
2023/06/08 13:00:26;;;;;;;17.17;10.25;;;;;;;;;;5110305;28;20370;-63
2023/06/08 13:02:52;;;;;;;11.90;8.40;;;;;;;;;;5100649;28;20024;-64
2023/06/08 13:05:18;;;;;;;11.38;8.68;;;;;;;;;;5105334;28;20116;-64
2023/06/08 13:07:43;;;;;;;10.75;9.10;;;;;;;;;;5096515;28;20130;-64
2023/06/08 13:10:09;;;;;;;12.23;8.10;;;;;;;;;;5109300;28;20730;-64
2023/06/08 13:12:34;;;;;;;14.98;8.93;;;;;;;;;;5111782;28;20265;-64
2023/06/08 13:14:59;;;;;;;12.03;8.10;;;;;;;;;;5112537;28;20063;-64
2023/06/08 13:17:25;;;;;;;15.67;8.03;;;;;;;;;;5111267;28;20327;-64
2023/06/08 13:19:52;;;;;;;12.85;8.73;;;;;;;;;;5111992;28;20254;-64
2023/06/08 13:22:18;;;;;;;12.25;7.60;;;;;;;;;;5109931;28;20026;-64
2023/06/08 13:24:43;;;;;;;11.15;8.25;;;;;;;;;;5110617;28;20027;-64
2023/06/08 13:27:09;;;;;;;11.52;8.27;;;;;;;;;;5110352;28;20015;-65
2023/06/08 13:29:34;;;;;;;28.38;8.52;;;;;;;;;;5100575;28;20024;-64
2023/06/08 13:31:59;;;;;;;12.27;7.72;;;;;;;;;;5108082;28;20529;-64
2023/06/08 13:34:25;;;;;;;12.60;8.18;;;;;;;;;;5094129;28;20395;-64
2023/06/08 13:36:50;;;;;;;12.67;8.30;;;;;;;;;;5095582;28;20024;-64
2023/06/08 13:39:15;;;;;;;11.75;7.75;;;;;;;;;;5098930;28;20031;-64
2023/06/08 13:41:42;;;;;;;10.43;8.55;;;;;;;;;;5096321;28;20389;-64
2023/06/08 13:44:08;;;;;;;10.00;8.00;;;;;;;;;;5091394;28;20051;-64
2023/06/08 13:46:33;;;;;;;8.93;7.40;;;;;;;;;;5103459;28;20415;-64
2023/06/08 13:48:59;;;;;;;10.57;7.95;;;;;;;;;;5095798;28;20020;-64
2023/06/08 13:51:24;;;;;;;11.85;8.35;;;;;;;;;;5093999;28;20484;-64
2023/06/08 13:53:49;;;;;;;13.23;7.68;;;;;;;;;;5094121;28;20028;-63
2023/06/08 13:56:16;;;;;;;15.73;8.50;;;;;;;;;;5094112;28;20082;-64
2023/06/08 13:58:41;;;;;;;10.82;7.75;;;;;;;;;;5106613;28;20777;-64
2023/06/08 14:01:06;;;;;;;13.80;9.07;;;;;;;;;;5111743;28;20031;-64
2023/06/08 14:03:31;;;;;;;13.03;8.43;;;;;;;;;;5101175;28;20103;-64
2023/06/08 14:05:57;;;;;;;9.30;7.90;;;;;;;;;;5098247;28;20035;-64
2023/06/08 14:08:22;;;;;;;12.23;8.35;;;;;;;;;;5110396;28;20443;-65
2023/06/08 14:10:47;;;;;;;11.10;8.02;;;;;;;;;;5112315;28;20363;-63
2023/06/08 14:13:13;;;;;;;13.07;8.95;;;;;;;;;;5113104;28;20098;-64
2023/06/08 14:15:38;;;;;;;13.30;8.93;;;;;;;;;;5111941;28;20020;-64
2023/06/08 14:18:03;;;;;;;15.53;9.07;;;;;;;;;;5110030;28;20074;-64
2023/06/08 14:20:29;;;;;;;12.85;8.43;;;;;;;;;;5107525;28;20015;-67